»·PEaware :: N8134Q KRDD-KMFR

N8134Q :: KRDD-KMFR

FLIGHT INFORMATION

Flight Status: Arrived
Operator: Privately registered:
United States
More flights under this callsign
Pilot: Daniel S. (17205)
Aircraft: CESSNA T210 TURBO CENTURION
(T210)
More flights by this aircraft type
Origin: KRDD Redding Mun
United States
Destination: KMFR Rogue Valley Intl-Medford
United States
More flights between these airports :: More routes between these airports
Route: FOLDS V23 TALEM
File this flight plan on PilotEdge
Remarks:
Altitude:
(Current/Filed)
10,000ft
Speed:
(Current/Filed)
160kts
Departed: 16-Aug-19 05:14 PM
Arrived: 16-Aug-19 06:01 PM
Distance/Time
Traveled:
115nm/0:47
Distance/Time
To Go:
Arrived

Flight Plot

Page will automatically refresh every two minutes.

Flight plan parsing failed; only flown route is shown


Map Options




Map Legend


Flown Route
Filed Route
Departure Airport
Arrival Airport
Navaid (VOR, NDB)
Fix

Horizontal Profiles

Position Reports

Time Latitude Longitude Heading Altitude Ground
Speed
16-Aug-19 16:59 40.509027 -122.297920 359 461ft 0kts
16-Aug-19 17:00 40.509027 -122.297920 359 461ft 0kts
16-Aug-19 17:01 40.509027 -122.297920 359 461ft 0kts
16-Aug-19 17:02 40.509027 -122.297920 359 461ft 0kts
16-Aug-19 17:03 40.509027 -122.297920 359 461ft 0kts
16-Aug-19 17:04 40.509027 -122.297920 359 461ft 0kts
16-Aug-19 17:05 40.509030 -122.297920 359 461ft 0kts
16-Aug-19 17:06 40.508156 -122.298510 185 461ft 3kts
16-Aug-19 17:07 40.507007 -122.298580 173 461ft 8kts
16-Aug-19 17:08 40.504662 -122.298256 175 461ft 15kts
16-Aug-19 17:09 40.503073 -122.297420 135 461ft 7kts
16-Aug-19 17:10 40.501970 -122.295998 133 461ft 0kts
16-Aug-19 17:11 40.501970 -122.295998 133 461ft 0kts
16-Aug-19 17:12 40.501519 -122.295045 51 461ft 10kts
16-Aug-19 17:13 40.521704 -122.295113 4 1117ft 94kts
16-Aug-19 17:14 40.551021 -122.296476 348 2455ft 109kts
16-Aug-19 17:15 40.575224 -122.317989 319 3744ft 121kts
16-Aug-19 17:16 40.600621 -122.347296 316 4927ft 110kts
16-Aug-19 17:17 40.623008 -122.372919 317 5919ft 98kts
16-Aug-19 17:18 40.644504 -122.397293 317 6759ft 108kts
16-Aug-19 17:19 40.669665 -122.425889 317 7513ft 124kts
16-Aug-19 17:20 40.697477 -122.457344 318 8246ft 132kts
16-Aug-19 17:21 40.726528 -122.490331 318 8967ft 136kts
16-Aug-19 17:22 40.761522 -122.513044 339 9687ft 140kts
16-Aug-19 17:23 40.800180 -122.529510 339 10172ft 153kts
16-Aug-19 17:24 40.844955 -122.548385 340 10173ft 171kts
16-Aug-19 17:25 40.891891 -122.568239 340 10173ft 173kts
16-Aug-19 17:26 40.938850 -122.588110 340 10173ft 173kts
16-Aug-19 17:27 40.985817 -122.608137 340 10171ft 173kts
16-Aug-19 17:28 41.032763 -122.628114 340 10171ft 173kts
16-Aug-19 17:29 41.079580 -122.648163 340 10106ft 177kts
16-Aug-19 17:30 41.123932 -122.666987 339 9971ft 176kts
16-Aug-19 17:31 41.168331 -122.685949 339 9974ft 173kts
16-Aug-19 17:32 41.215186 -122.706024 339 9973ft 173kts
16-Aug-19 17:33 41.261937 -122.726032 339 9973ft 172kts
16-Aug-19 17:34 41.308426 -122.745991 339 9983ft 171kts
16-Aug-19 17:35 41.354894 -122.765959 339 10000ft 171kts
16-Aug-19 17:36 41.400964 -122.785768 339 10018ft 170kts
16-Aug-19 17:37 41.444529 -122.804347 340 10030ft 145kts
16-Aug-19 17:38 41.485609 -122.809948 351 10040ft 150kts
16-Aug-19 17:39 41.529575 -122.814792 352 10037ft 158kts
16-Aug-19 17:40 41.574633 -122.819402 352 10037ft 159kts
16-Aug-19 17:41 41.619650 -122.823993 352 10036ft 157kts
16-Aug-19 17:42 41.663994 -122.828547 352 10036ft 156kts
16-Aug-19 17:43 41.708056 -122.833156 352 10036ft 155kts
16-Aug-19 17:44 41.752343 -122.837636 352 10036ft 156kts
16-Aug-19 17:45 41.796376 -122.842179 352 10036ft 156kts
16-Aug-19 17:46 41.840482 -122.846662 352 10034ft 152kts
16-Aug-19 17:47 41.881970 -122.850891 351 10035ft 142kts
16-Aug-19 17:48 41.921520 -122.854937 351 10034ft 139kts
16-Aug-19 17:49 41.964180 -122.854502 11 9451ft 165kts
16-Aug-19 17:50 42.007680 -122.839341 9 9322ft 149kts
16-Aug-19 17:51 42.048037 -122.826341 8 9314ft 143kts
16-Aug-19 17:52 42.087457 -122.813716 9 9303ft 142kts
16-Aug-19 17:53 42.127752 -122.805177 5 8735ft 164kts
16-Aug-19 17:54 42.177317 -122.795326 5 7620ft 180kts
16-Aug-19 17:55 42.226126 -122.798073 348 6065ft 156kts
16-Aug-19 17:56 42.264004 -122.816650 337 4508ft 133kts
16-Aug-19 17:57 42.297733 -122.833639 336 3033ft 121kts
16-Aug-19 17:58 42.328605 -122.849116 337 2134ft 98kts
16-Aug-19 17:59 42.352782 -122.862031 341 1755ft 73kts
16-Aug-19 18:00 42.368826 -122.870018 337 1324ft 31kts
16-Aug-19 18:01 42.373425 -122.872600 308 1317ft 13kts
16-Aug-19 18:03 42.372083 -122.874969 245 1317ft 11kts
16-Aug-19 18:04 42.371531 -122.875953 296 1317ft 0kts

Navigation Log

Ident Type
Flight plan parsing failed, navigation log unavailable